sensor_id;sensor_type;location;lat;lon;timestamp;P1;durP1;ratioP1;P2;durP2;ratioP2
47113;SDS011;32867;51.556;6.832;2022-11-20T11:09:34;14.65;;;10.73;;
47113;SDS011;32867;51.556;6.832;2022-11-20T11:14:43;18.63;;;12.20;;
47113;SDS011;32867;51.556;6.832;2022-11-20T11:19:56;20.35;;;15.05;;
47113;SDS011;32867;51.556;6.832;2022-11-20T11:25:21;16.80;;;12.00;;
47113;SDS011;32867;51.556;6.832;2022-11-20T11:30:29;20.00;;;13.98;;
47113;SDS011;32867;51.556;6.832;2022-11-20T11:35:45;27.48;;;16.83;;
47113;SDS011;32867;51.556;6.832;2022-11-20T11:40:49;26.63;;;16.60;;
47113;SDS011;32867;51.556;6.832;2022-11-20T11:45:55;22.65;;;15.23;;
47113;SDS011;32867;51.556;6.832;2022-11-20T11:50:56;18.95;;;12.32;;
47113;SDS011;32867;51.556;6.832;2022-11-20T11:56:03;19.33;;;13.73;;
47113;SDS011;32867;51.556;6.832;2022-11-20T12:06:28;21.13;;;14.73;;
47113;SDS011;32867;51.556;6.832;2022-11-20T12:11:33;21.77;;;14.27;;
47113;SDS011;32867;51.556;6.832;2022-11-20T12:16:38;18.27;;;12.55;;
47113;SDS011;32867;51.556;6.832;2022-11-20T12:37:42;18.88;;;12.43;;
47113;SDS011;32867;51.556;6.832;2022-11-20T12:43:27;19.55;;;13.30;;
47113;SDS011;32867;51.556;6.832;2022-11-20T12:54:16;20.48;;;13.55;;
47113;SDS011;32867;51.556;6.832;2022-11-20T13:05:05;22.63;;;13.48;;
47113;SDS011;32867;51.556;6.832;2022-11-20T13:10:18;17.58;;;11.52;;
47113;SDS011;32867;51.556;6.832;2022-11-20T13:15:43;22.25;;;14.13;;
47113;SDS011;32867;51.556;6.832;2022-11-20T13:20:57;18.35;;;11.60;;
47113;SDS011;32867;51.556;6.832;2022-11-20T13:26:19;26.05;;;15.25;;
47113;SDS011;32867;51.556;6.832;2022-11-20T13:31:34;22.77;;;13.77;;
47113;SDS011;32867;51.556;6.832;2022-11-20T13:36:50;21.50;;;13.02;;
47113;SDS011;32867;51.556;6.832;2022-11-20T13:41:56;23.85;;;13.57;;
47113;SDS011;32867;51.556;6.832;2022-11-20T13:46:58;26.25;;;15.80;;
47113;SDS011;32867;51.556;6.832;2022-11-20T13:52:04;20.85;;;14.35;;
47113;SDS011;32867;51.556;6.832;2022-11-20T14:02:18;17.90;;;11.45;;
47113;SDS011;32867;51.556;6.832;2022-11-20T14:07:24;18.73;;;11.93;;
47113;SDS011;32867;51.556;6.832;2022-11-20T14:12:31;21.83;;;13.13;;
47113;SDS011;32867;51.556;6.832;2022-11-20T14:17:34;19.58;;;12.38;;
47113;SDS011;32867;51.556;6.832;2022-11-20T14:22:36;21.95;;;14.63;;
47113;SDS011;32867;51.556;6.832;2022-11-20T14:27:37;22.30;;;13.52;;
47113;SDS011;32867;51.556;6.832;2022-11-20T14:32:41;24.67;;;14.55;;
47113;SDS011;32867;51.556;6.832;2022-11-20T14:37:43;21.65;;;13.48;;
47113;SDS011;32867;51.556;6.832;2022-11-20T14:42:44;25.73;;;16.48;;
47113;SDS011;32867;51.556;6.832;2022-11-20T14:47:45;23.70;;;13.68;;
47113;SDS011;32867;51.556;6.832;2022-11-20T14:52:53;20.20;;;12.15;;
47113;SDS011;32867;51.556;6.832;2022-11-20T14:58:02;22.20;;;13.88;;
47113;SDS011;32867;51.556;6.832;2022-11-20T15:03:13;23.30;;;14.57;;
47113;SDS011;32867;51.556;6.832;2022-11-20T15:08:15;21.88;;;14.23;;
47113;SDS011;32867;51.556;6.832;2022-11-20T15:13:29;22.77;;;15.45;;
47113;SDS011;32867;51.556;6.832;2022-11-20T15:18:36;23.88;;;15.77;;
47113;SDS011;32867;51.556;6.832;2022-11-20T15:23:39;20.65;;;12.95;;
47113;SDS011;32867;51.556;6.832;2022-11-20T15:28:41;20.00;;;12.75;;
47113;SDS011;32867;51.556;6.832;2022-11-20T15:33:43;21.13;;;12.90;;
47113;SDS011;32867;51.556;6.832;2022-11-20T15:38:44;18.33;;;12.63;;
47113;SDS011;32867;51.556;6.832;2022-11-20T15:43:45;22.52;;;14.23;;
47113;SDS011;32867;51.556;6.832;2022-11-20T15:48:48;23.52;;;14.73;;
47113;SDS011;32867;51.556;6.832;2022-11-20T15:53:51;18.58;;;11.95;;
47113;SDS011;32867;51.556;6.832;2022-11-20T15:58:52;21.98;;;14.23;;
47113;SDS011;32867;51.556;6.832;2022-11-20T16:03:53;26.50;;;16.00;;
47113;SDS011;32867;51.556;6.832;2022-11-20T16:08:54;24.23;;;14.80;;
47113;SDS011;32867;51.556;6.832;2022-11-20T16:13:54;22.17;;;14.65;;
47113;SDS011;32867;51.556;6.832;2022-11-20T16:19:14;21.73;;;14.32;;
47113;SDS011;32867;51.556;6.832;2022-11-20T16:24:15;24.92;;;14.00;;
47113;SDS011;32867;51.556;6.832;2022-11-20T16:29:16;26.75;;;17.02;;
47113;SDS011;32867;51.556;6.832;2022-11-20T16:34:16;21.60;;;14.05;;
47113;SDS011;32867;51.556;6.832;2022-11-20T16:39:18;27.13;;;17.20;;
47113;SDS011;32867;51.556;6.832;2022-11-20T16:44:19;26.25;;;17.40;;
47113;SDS011;32867;51.556;6.832;2022-11-20T16:49:20;23.95;;;15.00;;
47113;SDS011;32867;51.556;6.832;2022-11-20T16:54:20;25.45;;;16.38;;
47113;SDS011;32867;51.556;6.832;2022-11-20T16:59:21;25.38;;;15.93;;
47113;SDS011;32867;51.556;6.832;2022-11-20T17:04:22;21.15;;;13.60;;
47113;SDS011;32867;51.556;6.832;2022-11-20T17:09:22;21.77;;;13.68;;
47113;SDS011;32867;51.556;6.832;2022-11-20T17:14:23;21.33;;;13.70;;
47113;SDS011;32867;51.556;6.832;2022-11-20T17:19:23;24.52;;;15.35;;
47113;SDS011;32867;51.556;6.832;2022-11-20T17:24:24;23.48;;;14.80;;
47113;SDS011;32867;51.556;6.832;2022-11-20T17:29:25;18.92;;;12.48;;
47113;SDS011;32867;51.556;6.832;2022-11-20T17:34:25;20.55;;;13.40;;
47113;SDS011;32867;51.556;6.832;2022-11-20T17:39:26;21.27;;;13.27;;
47113;SDS011;32867;51.556;6.832;2022-11-20T17:44:27;21.98;;;13.93;;
47113;SDS011;32867;51.556;6.832;2022-11-20T17:49:27;22.50;;;13.48;;
47113;SDS011;32867;51.556;6.832;2022-11-20T17:54:28;20.92;;;13.18;;
47113;SDS011;32867;51.556;6.832;2022-11-20T17:59:29;23.50;;;14.82;;
47113;SDS011;32867;51.556;6.832;2022-11-20T18:10:52;21.13;;;13.88;;
47113;SDS011;32867;51.556;6.832;2022-11-20T18:28:38;23.85;;;15.43;;
47113;SDS011;32867;51.556;6.832;2022-11-20T18:33:38;21.80;;;13.85;;
47113;SDS011;32867;51.556;6.832;2022-11-20T18:38:39;22.75;;;14.27;;
47113;SDS011;32867;51.556;6.832;2022-11-20T18:43:42;23.25;;;14.07;;
47113;SDS011;32867;51.556;6.832;2022-11-20T18:49:02;20.88;;;13.07;;
47113;SDS011;32867;51.556;6.832;2022-11-20T18:54:03;23.20;;;14.07;;
47113;SDS011;32867;51.556;6.832;2022-11-20T18:59:06;23.48;;;13.80;;
47113;SDS011;32867;51.556;6.832;2022-11-20T19:04:13;20.42;;;12.63;;
47113;SDS011;32867;51.556;6.832;2022-11-20T19:09:15;20.92;;;12.85;;
47113;SDS011;32867;51.556;6.832;2022-11-20T19:14:16;19.30;;;12.23;;
47113;SDS011;32867;51.556;6.832;2022-11-20T19:19:17;17.38;;;9.98;;
47113;SDS011;32867;51.556;6.832;2022-11-20T19:24:18;15.50;;;10.13;;
47113;SDS011;32867;51.556;6.832;2022-11-20T19:29:19;14.90;;;9.55;;
47113;SDS011;32867;51.556;6.832;2022-11-20T19:34:20;15.30;;;8.73;;
47113;SDS011;32867;51.556;6.832;2022-11-20T19:39:21;15.70;;;10.27;;
47113;SDS011;32867;51.556;6.832;2022-11-20T19:44:22;13.98;;;8.85;;
47113;SDS011;32867;51.556;6.832;2022-11-20T19:49:22;15.63;;;8.95;;
47113;SDS011;32867;51.556;6.832;2022-11-20T19:54:23;18.90;;;10.18;;
47113;SDS011;32867;51.556;6.832;2022-11-20T19:59:23;21.15;;;12.60;;
47113;SDS011;32867;51.556;6.832;2022-11-20T20:04:24;19.90;;;12.02;;
47113;SDS011;32867;51.556;6.832;2022-11-20T20:09:26;24.15;;;14.70;;
47113;SDS011;32867;51.556;6.832;2022-11-20T20:14:26;25.63;;;15.45;;
47113;SDS011;32867;51.556;6.832;2022-11-20T20:19:27;23.02;;;14.15;;
47113;SDS011;32867;51.556;6.832;2022-11-20T20:24:27;16.65;;;11.18;;
47113;SDS011;32867;51.556;6.832;2022-11-20T20:29:28;16.95;;;11.10;;
47113;SDS011;32867;51.556;6.832;2022-11-20T20:34:29;16.27;;;10.57;;
47113;SDS011;32867;51.556;6.832;2022-11-20T20:39:31;18.33;;;12.05;;
47113;SDS011;32867;51.556;6.832;2022-11-20T20:44:31;18.38;;;12.93;;
47113;SDS011;32867;51.556;6.832;2022-11-20T20:49:50;16.73;;;11.63;;
47113;SDS011;32867;51.556;6.832;2022-11-20T20:54:51;16.92;;;12.13;;
47113;SDS011;32867;51.556;6.832;2022-11-20T20:59:52;16.92;;;12.02;;
47113;SDS011;32867;51.556;6.832;2022-11-20T21:04:54;23.67;;;15.63;;
47113;SDS011;32867;51.556;6.832;2022-11-20T21:09:55;24.85;;;16.80;;
47113;SDS011;32867;51.556;6.832;2022-11-20T21:14:55;23.40;;;15.32;;
47113;SDS011;32867;51.556;6.832;2022-11-20T21:19:56;21.02;;;14.27;;
47113;SDS011;32867;51.556;6.832;2022-11-20T21:24:57;23.02;;;15.07;;
47113;SDS011;32867;51.556;6.832;2022-11-20T21:29:57;24.42;;;16.23;;
47113;SDS011;32867;51.556;6.832;2022-11-20T21:34:58;22.73;;;15.68;;
47113;SDS011;32867;51.556;6.832;2022-11-20T21:39:59;26.20;;;17.08;;
47113;SDS011;32867;51.556;6.832;2022-11-20T21:44:59;27.75;;;17.63;;
47113;SDS011;32867;51.556;6.832;2022-11-20T21:50:00;23.65;;;15.25;;
47113;SDS011;32867;51.556;6.832;2022-11-20T21:55:00;23.80;;;16.02;;
47113;SDS011;32867;51.556;6.832;2022-11-20T22:00:02;20.80;;;14.05;;
47113;SDS011;32867;51.556;6.832;2022-11-20T22:05:10;21.58;;;14.93;;
47113;SDS011;32867;51.556;6.832;2022-11-20T22:10:11;32.65;;;19.77;;
47113;SDS011;32867;51.556;6.832;2022-11-20T22:15:12;22.40;;;16.00;;
47113;SDS011;32867;51.556;6.832;2022-11-20T22:20:14;20.73;;;13.85;;
47113;SDS011;32867;51.556;6.832;2022-11-20T22:25:15;21.08;;;14.40;;
47113;SDS011;32867;51.556;6.832;2022-11-20T22:30:16;22.30;;;15.18;;
47113;SDS011;32867;51.556;6.832;2022-11-20T22:35:16;20.30;;;13.20;;
47113;SDS011;32867;51.556;6.832;2022-11-20T22:40:17;19.98;;;14.10;;
47113;SDS011;32867;51.556;6.832;2022-11-20T22:45:19;22.75;;;15.02;;
47113;SDS011;32867;51.556;6.832;2022-11-20T22:50:20;20.17;;;13.70;;
47113;SDS011;32867;51.556;6.832;2022-11-20T22:55:20;28.27;;;18.00;;
47113;SDS011;32867;51.556;6.832;2022-11-20T23:00:21;22.95;;;14.75;;
47113;SDS011;32867;51.556;6.832;2022-11-20T23:05:21;21.35;;;14.88;;
47113;SDS011;32867;51.556;6.832;2022-11-20T23:10:22;20.83;;;14.40;;
47113;SDS011;32867;51.556;6.832;2022-11-20T23:15:23;19.30;;;13.70;;
47113;SDS011;32867;51.556;6.832;2022-11-20T23:20:23;21.55;;;14.65;;
47113;SDS011;32867;51.556;6.832;2022-11-20T23:25:24;20.33;;;12.70;;
47113;SDS011;32867;51.556;6.832;2022-11-20T23:30:24;19.25;;;12.75;;
47113;SDS011;32867;51.556;6.832;2022-11-20T23:35:25;17.70;;;12.27;;
47113;SDS011;32867;51.556;6.832;2022-11-20T23:40:26;17.52;;;12.23;;
47113;SDS011;32867;51.556;6.832;2022-11-20T23:45:26;22.65;;;14.52;;
47113;SDS011;32867;51.556;6.832;2022-11-20T23:50:27;20.13;;;13.45;;
47113;SDS011;32867;51.556;6.832;2022-11-20T23:55:27;22.60;;;15.20;;
